Time;durP1;ratioP1;P1;durP2;ratioP2;P2;SDS_P1;SDS_P2;PMS_P1;PMS_P2;Temp;Humidity;BMP_temperature;BMP_pressure;BME280_temperature;BME280_humidity;BME280_pressure;Samples;Min_cycle;Max_cycle;Signal;HPM_P1;HPM_P2
2022/10/01 00:02:09;;;;;;;6.23;4.50;;;;;;;8.92;nan;97818.34;4995063;28;20207;-70
2022/10/01 00:04:36;;;;;;;5.63;4.50;;;;;;;8.93;nan;97826.09;4995005;28;20223;-70
2022/10/01 00:07:08;;;;;;;4.70;4.20;;;;;;;8.98;nan;97823.59;4995025;28;20211;-70
2022/10/01 00:09:34;;;;;;;4.30;3.90;;;;;;;9.00;nan;97831.34;4994913;28;20195;-70
2022/10/01 00:12:01;;;;;;;5.37;4.40;;;;;;;9.13;nan;97825.91;4994977;28;20203;-70
2022/10/01 00:14:28;;;;;;;4.87;4.20;;;;;;;9.23;nan;97815.66;4994534;28;20302;-70
2022/10/01 00:16:54;;;;;;;4.13;3.77;;;;;;;9.34;nan;97812.31;4994465;28;20246;-70
2022/10/01 00:19:21;;;;;;;4.00;3.60;;;;;;;9.41;nan;97816.53;4994757;28;20203;-70
2022/10/01 00:21:47;;;;;;;4.23;3.63;;;;;;;9.42;nan;97809.38;4994419;28;20257;-70
2022/10/01 00:24:14;;;;;;;4.47;4.07;;;;;;;9.51;nan;97810.72;4994225;28;20717;-70
2022/10/01 00:26:44;;;;;;;4.13;3.47;;;;;;;9.47;nan;97809.53;4994715;28;20207;-70
2022/10/01 00:29:13;;;;;;;4.30;3.80;;;;;;;9.50;nan;97822.38;4995142;28;20730;-70
2022/10/01 00:31:40;;;;;;;3.97;3.60;;;;;;;9.50;nan;97828.50;4994507;28;20249;-70
2022/10/01 00:34:07;;;;;;;4.67;3.70;;;;;;;9.49;nan;97820.75;4994536;28;20214;-70
2022/10/01 00:36:34;;;;;;;4.50;4.10;;;;;;;9.50;nan;97807.25;4994137;28;20211;-70
2022/10/01 00:39:01;;;;;;;4.30;3.90;;;;;;;9.52;nan;97804.38;4994507;28;20214;-70
2022/10/01 00:41:32;;;;;;;4.40;3.70;;;;;;;9.49;nan;97812.78;4994352;28;20243;-71
2022/10/01 00:44:02;;;;;;;3.57;3.27;;;;;;;9.52;nan;97815.00;4994105;28;20693;-70
2022/10/01 00:46:37;;;;;;;3.70;3.40;;;;;;;9.50;nan;97809.13;4994349;28;20215;-70
2022/10/01 00:49:16;;;;;;;3.60;3.30;;;;;;;9.50;nan;97812.56;4994432;28;20206;-70
2022/10/01 00:51:45;;;;;;;3.80;3.50;;;;;;;9.48;nan;97822.59;4994346;28;20202;-70
2022/10/01 00:54:42;;;;;;;4.43;3.10;;;;;;;9.50;nan;97828.50;4994217;28;20210;-70
2022/10/01 00:57:09;;;;;;;3.90;3.60;;;;;;;9.55;nan;97830.50;4993650;28;20207;-70
2022/10/01 00:59:36;;;;;;;3.70;3.40;;;;;;;9.56;nan;97840.09;4994224;28;20318;-70
2022/10/01 01:02:03;;;;;;;3.80;3.50;;;;;;;9.52;nan;97836.22;5009307;28;20237;-70
2022/10/01 01:04:29;;;;;;;4.33;3.50;;;;;;;9.51;nan;97824.78;4994090;28;20235;-70
2022/10/01 01:07:00;;;;;;;4.43;4.03;;;;;;;9.53;nan;97816.63;4994139;28;20207;-70
2022/10/01 01:09:30;;;;;;;3.93;3.60;;;;;;;9.57;nan;97815.16;4994914;28;20278;-70
2022/10/01 01:12:17;;;;;;;3.57;3.27;;;;;;;9.59;nan;97824.53;4994911;28;20210;-70
2022/10/01 01:15:02;;;;;;;3.53;3.17;;;;;;;9.62;nan;97810.84;5007256;28;20503;-70
2022/10/01 01:17:55;;;;;;;3.93;3.30;;;;;;;9.57;nan;97817.81;4994121;28;20194;-70
2022/10/01 01:20:22;;;;;;;3.33;3.13;;;;;;;9.53;nan;97824.59;4993220;28;20227;-70
2022/10/01 01:23:01;;;;;;;4.30;3.27;;;;;;;9.47;nan;97809.53;4993795;28;20213;-70
2022/10/01 01:25:39;;;;;;;3.50;3.20;;;;;;;9.57;nan;97818.63;5009095;28;20196;-70
2022/10/01 01:28:30;;;;;;;3.07;2.87;;;;;;;9.58;nan;97809.63;4994062;28;20191;-70
2022/10/01 01:31:02;;;;;;;3.07;2.57;;;;;;;9.64;nan;97807.97;4993809;28;20306;-70
2022/10/01 01:33:33;;;;;;;3.10;2.60;;;;;;;9.79;nan;97805.75;4994029;28;20200;-70
2022/10/01 01:36:05;;;;;;;5.80;2.90;;;;;;;9.80;nan;97796.75;4993914;28;20187;-70
2022/10/01 01:38:42;;;;;;;2.83;2.63;;;;;;;9.78;nan;97793.53;4993672;28;20665;-70
2022/10/01 01:41:11;;;;;;;2.90;2.70;;;;;;;9.76;nan;97784.94;4994120;28;20577;-70
2022/10/01 01:43:43;;;;;;;2.93;2.43;;;;;;;9.80;nan;97776.34;4993392;28;20694;-70
2022/10/01 01:46:16;;;;;;;3.73;2.53;;;;;;;9.76;nan;97772.50;4993777;28;20195;-70
2022/10/01 01:48:46;;;;;;;3.50;2.77;;;;;;;9.69;nan;97768.31;4993835;28;20192;-70
2022/10/01 01:51:31;;;;;;;3.57;2.80;;;;;;;9.66;nan;97774.88;4993738;28;20263;-70
2022/10/01 01:53:57;;;;;;;3.17;2.90;;;;;;;9.59;nan;97775.97;4993724;28;20192;-70
2022/10/01 01:56:24;;;;;;;3.43;3.13;;;;;;;9.56;nan;97768.44;4993586;28;20204;-70
2022/10/01 01:58:52;;;;;;;3.20;2.90;;;;;;;9.48;nan;97764.22;4993646;28;20214;-70
2022/10/01 02:01:51;;;;;;;3.30;2.87;;;;;;;9.54;nan;97759.84;4993619;28;20255;-70
2022/10/01 02:04:46;;;;;;;3.00;2.70;;;;;;;9.48;nan;97758.91;4992222;28;20246;-70
2022/10/01 02:07:37;;;;;;;2.83;2.57;;;;;;;9.49;nan;97757.06;4994523;28;20199;-70
2022/10/01 02:10:22;;;;;;;2.60;2.40;;;;;;;9.46;nan;97758.31;4996078;28;20586;-70
2022/10/01 02:13:19;;;;;;;2.90;2.60;;;;;;;9.45;nan;97762.00;4997223;28;20281;-70
2022/10/01 02:15:55;;;;;;;3.17;2.70;;;;;;;9.51;nan;97760.31;4996613;28;20704;-70
2022/10/01 02:18:39;;;;;;;3.27;2.50;;;;;;;9.44;nan;97759.56;5012100;28;20218;-70
2022/10/01 02:21:34;;;;;;;3.90;2.60;;;;;;;9.48;nan;97752.78;5010365;28;20258;-70
2022/10/01 02:24:07;;;;;;;2.77;2.57;;;;;;;9.33;nan;97747.03;4996528;28;20600;-70
2022/10/01 02:26:37;;;;;;;3.00;2.80;;;;;;;9.42;nan;97745.72;4996954;28;20249;-70
2022/10/01 02:29:08;;;;;;;3.67;2.70;;;;;;;9.33;nan;97747.81;4996634;28;20729;-70
2022/10/01 02:31:35;;;;;;;2.33;2.13;;;;;;;9.35;nan;97747.59;5011484;28;20286;-70
2022/10/01 02:34:05;;;;;;;2.27;2.07;;;;;;;9.36;nan;97749.22;4996766;28;20211;-70
2022/10/01 02:36:33;;;;;;;3.03;2.50;;;;;;;9.37;nan;97754.31;4996717;28;20255;-70
2022/10/01 02:39:02;;;;;;;2.63;2.40;;;;;;;9.44;nan;97754.25;4996617;28;20211;-70
2022/10/01 02:41:33;;;;;;;2.90;2.27;;;;;;;9.45;nan;97753.22;4996556;28;20254;-70
2022/10/01 02:44:06;;;;;;;3.80;2.30;;;;;;;9.50;nan;97753.41;4996484;28;20219;-70
2022/10/01 02:46:44;;;;;;;2.60;2.40;;;;;;;9.47;nan;97743.22;4996511;28;20207;-70
2022/10/01 02:49:12;;;;;;;2.20;2.00;;;;;;;9.45;nan;97742.59;4996274;28;20195;-70
2022/10/01 02:51:46;;;;;;;3.30;2.80;;;;;;;9.50;nan;97748.88;4996430;28;20235;-70
2022/10/01 02:54:27;;;;;;;2.40;2.20;;;;;;;9.52;nan;97736.22;4996107;28;20183;-70
2022/10/01 02:59:39;;;;;;;3.23;2.40;;;;;;;9.46;nan;97738.94;4995971;28;20694;-70
2022/10/01 03:02:06;;;;;;;2.50;2.30;;;;;;;9.53;nan;97731.72;4995975;28;20546;-70
2022/10/01 03:04:32;;;;;;;2.90;2.40;;;;;;;9.61;nan;97734.91;5010872;28;20227;-70
2022/10/01 03:07:02;;;;;;;2.87;2.50;;;;;;;9.51;nan;97739.88;4996026;28;20207;-70
2022/10/01 03:09:33;;;;;;;3.10;2.70;;;;;;;9.53;nan;97737.84;4996032;28;20211;-70
2022/10/01 03:12:00;;;;;;;2.40;2.20;;;;;;;9.49;nan;97730.53;4996070;28;20206;-70
2022/10/01 03:14:27;;;;;;;2.67;2.47;;;;;;;9.47;nan;97733.41;4996022;28;20235;-70
2022/10/01 03:16:54;;;;;;;3.93;2.30;;;;;;;9.52;nan;97732.75;4996001;28;20209;-70
2022/10/01 03:19:21;;;;;;;2.43;2.23;;;;;;;9.52;nan;97732.75;4995610;28;20203;-70
2022/10/01 03:21:47;;;;;;;2.93;2.43;;;;;;;9.47;nan;97730.75;4994479;28;20208;-70
2022/10/01 03:24:14;;;;;;;2.70;2.30;;;;;;;9.58;nan;97722.06;4995287;28;20223;-70
2022/10/01 03:26:40;;;;;;;2.47;2.27;;;;;;;9.56;nan;97721.44;4995266;28;20215;-70
2022/10/01 03:29:06;;;;;;;3.13;2.93;;;;;;;9.61;nan;97712.84;4995696;28;20213;-70
2022/10/01 03:31:33;;;;;;;2.90;2.13;;;;;;;9.49;nan;97715.41;4995556;28;20223;-70
2022/10/01 03:33:59;;;;;;;2.73;2.47;;;;;;;9.51;nan;97723.16;4995247;28;20211;-70
2022/10/01 03:36:29;;;;;;;2.70;2.50;;;;;;;9.45;nan;97718.72;4995133;28;20218;-70
2022/10/01 03:38:56;;;;;;;3.37;3.07;;;;;;;9.40;nan;97726.53;4995241;28;20207;-70
2022/10/01 03:41:22;;;;;;;7.00;2.97;;;;;;;9.32;nan;97718.88;4995060;28;20706;-70
2022/10/01 03:43:49;;;;;;;3.70;3.17;;;;;;;9.29;nan;97714.00;4995308;28;20231;-70
2022/10/01 03:46:15;;;;;;;2.87;2.50;;;;;;;9.31;nan;97703.97;4995296;28;20211;-70
2022/10/01 03:48:41;;;;;;;5.67;3.47;;;;;;;9.40;nan;97707.97;4995312;28;20224;-70
2022/10/01 03:51:08;;;;;;;4.97;3.37;;;;;;;9.33;nan;97704.56;4994852;28;20231;-70
2022/10/01 03:53:34;;;;;;;3.47;2.30;;;;;;;9.40;nan;97700.00;4994868;28;20217;-70
2022/10/01 03:56:01;;;;;;;3.53;2.83;;;;;;;9.41;nan;97688.38;4995271;28;20207;-70
2022/10/01 03:58:27;;;;;;;2.90;2.40;;;;;;;9.49;nan;97688.06;4995154;28;20211;-70
2022/10/01 04:00:54;;;;;;;3.00;2.70;;;;;;;9.51;nan;97684.16;4994980;28;20234;-70
2022/10/01 04:03:21;;;;;;;2.60;2.40;;;;;;;9.42;nan;97688.13;4994636;28;20214;-70
2022/10/01 04:05:48;;;;;;;6.20;2.83;;;;;;;9.46;nan;97677.91;4994676;28;20207;-70
2022/10/01 04:08:15;;;;;;;5.20;2.47;;;;;;;9.41;nan;97681.22;4994822;28;20231;-70
2022/10/01 04:10:42;;;;;;;3.30;2.60;;;;;;;9.49;nan;97683.59;4994763;28;20227;-70
2022/10/01 04:13:08;;;;;;;3.90;2.50;;;;;;;9.38;nan;97679.03;4994889;28;20573;-70
2022/10/01 04:15:35;;;;;;;2.83;2.40;;;;;;;9.47;nan;97676.88;4994697;28;20206;-70
2022/10/01 04:18:04;;;;;;;3.03;2.70;;;;;;;9.37;nan;97674.72;4994783;28;20203;-70
2022/10/01 04:20:31;;;;;;;2.40;2.20;;;;;;;9.40;nan;97673.47;4994685;28;20326;-70
2022/10/01 04:22:57;;;;;;;2.60;2.40;;;;;;;9.35;nan;97681.28;4994559;28;20215;-70
2022/10/01 04:25:23;;;;;;;2.83;2.27;;;;;;;9.34;nan;97687.63;4994686;28;20231;-70
2022/10/01 04:27:59;;;;;;;2.10;1.90;;;;;;;9.41;nan;97683.06;4994701;28;20213;-70
2022/10/01 04:30:28;;;;;;;2.30;2.10;;;;;;;9.37;nan;97679.22;4994589;28;20249;-70
2022/10/01 04:32:54;;;;;;;2.43;2.00;;;;;;;9.43;nan;97681.00;4994253;28;20218;-70
2022/10/01 04:35:21;;;;;;;2.13;2.00;;;;;;;9.41;nan;97681.22;4995055;28;20210;-70
2022/10/01 04:37:54;;;;;;;2.10;1.90;;;;;;;9.41;nan;97669.81;4994161;28;20207;-70
2022/10/01 04:40:21;;;;;;;1.87;1.77;;;;;;;9.50;nan;97668.47;4994361;28;20237;-70
2022/10/01 04:42:47;;;;;;;2.30;2.10;;;;;;;9.52;nan;97666.41;4994409;28;20213;-70
2022/10/01 04:45:13;;;;;;;1.87;1.77;;;;;;;9.54;nan;97672.28;4994257;28;20230;-70
2022/10/01 04:47:48;;;;;;;4.67;1.60;;;;;;;9.63;nan;97676.28;4994315;28;20242;-70
2022/10/01 04:50:15;;;;;;;2.67;1.70;;;;;;;9.64;nan;97669.94;4994249;28;20235;-70
2022/10/01 04:52:42;;;;;;;1.70;1.60;;;;;;;9.63;nan;97668.31;4993964;28;20741;-70
2022/10/01 04:55:08;;;;;;;1.73;1.63;;;;;;;9.68;nan;97673.78;4994210;28;20206;-70
2022/10/01 04:57:37;;;;;;;1.53;1.43;;;;;;;9.66;nan;97673.19;4994320;28;20211;-70
2022/10/01 05:00:04;;;;;;;2.07;1.67;;;;;;;9.73;nan;97672.06;4994728;28;20330;-71
2022/10/01 05:02:33;;;;;;;1.50;1.40;;;;;;;9.76;nan;97670.81;4993858;28;20207;-70
2022/10/01 05:05:03;;;;;;;1.53;1.43;;;;;;;9.79;nan;97673.03;4994138;28;20231;-70
2022/10/01 05:07:30;;;;;;;1.60;1.47;;;;;;;9.84;nan;97676.66;4994107;28;20203;-70
2022/10/01 05:09:59;;;;;;;2.20;1.43;;;;;;;9.86;nan;97673.78;4994051;28;20234;-70
2022/10/01 05:12:25;;;;;;;1.80;1.50;;;;;;;9.79;nan;97673.84;4994059;28;20227;-70
2022/10/01 05:14:52;;;;;;;2.13;1.60;;;;;;;9.81;nan;97676.25;4994015;28;20204;-70
2022/10/01 05:17:19;;;;;;;1.87;1.77;;;;;;;9.81;nan;97670.94;4994000;28;20207;-70
2022/10/01 05:19:46;;;;;;;1.60;1.50;;;;;;;9.84;nan;97678.47;4993939;28;20238;-70
2022/10/01 05:22:13;;;;;;;1.37;1.20;;;;;;;9.92;nan;97672.88;4994001;28;20213;-70
2022/10/01 05:24:40;;;;;;;3.80;1.40;;;;;;;9.93;nan;97674.47;4993358;28;20242;-70
2022/10/01 05:27:10;;;;;;;2.73;1.40;;;;;;;9.99;nan;97674.41;4993580;28;20636;-70
2022/10/01 05:29:37;;;;;;;1.53;1.43;;;;;;;9.93;nan;97670.00;4993678;28;20262;-70
2022/10/01 05:32:04;;;;;;;1.77;1.37;;;;;;;9.96;nan;97658.09;4994058;28;20549;-70
2022/10/01 05:34:30;;;;;;;2.50;1.40;;;;;;;9.95;nan;97654.63;4993811;28;20203;-70
2022/10/01 05:36:57;;;;;;;2.13;1.50;;;;;;;10.00;nan;97654.78;4993775;28;20203;-70
2022/10/01 05:39:23;;;;;;;1.77;1.40;;;;;;;10.05;nan;97654.94;4993596;28;20208;-70
2022/10/01 05:41:50;;;;;;;1.40;1.30;;;;;;;9.99;nan;97660.31;4993868;28;20213;-70
2022/10/01 05:44:16;;;;;;;1.33;1.23;;;;;;;9.95;nan;97667.91;4995221;28;20314;-70
2022/10/01 05:46:43;;;;;;;1.73;1.03;;;;;;;9.94;nan;97666.28;4997207;28;20729;-70
2022/10/01 05:49:09;;;;;;;1.27;1.17;;;;;;;10.04;nan;97665.75;4997326;28;20670;-70
2022/10/01 05:51:36;;;;;;;1.47;1.10;;;;;;;10.07;nan;97658.19;4997468;28;20227;-70
2022/10/01 05:54:03;;;;;;;1.30;1.20;;;;;;;10.05;nan;97654.13;4997499;28;20217;-70
2022/10/01 05:56:30;;;;;;;2.13;1.37;;;;;;;10.16;nan;97650.69;4997407;28;20580;-70
2022/10/01 05:58:57;;;;;;;1.30;1.20;;;;;;;10.11;nan;97643.44;4997410;28;20207;-70
2022/10/01 06:01:23;;;;;;;1.10;1.00;;;;;;;10.15;nan;97638.47;4997176;28;20238;-70
2022/10/01 06:03:52;;;;;;;1.20;1.10;;;;;;;10.11;nan;97638.13;4997207;28;20207;-70
2022/10/01 06:06:27;;;;;;;3.07;1.20;;;;;;;10.07;nan;97628.97;4997264;28;20210;-69
2022/10/01 06:08:53;;;;;;;1.30;1.20;;;;;;;10.00;nan;97622.91;4997198;28;20273;-69
2022/10/01 06:11:22;;;;;;;2.60;1.13;;;;;;;9.96;nan;97613.75;4996778;28;20229;-70
2022/10/01 06:13:48;;;;;;;2.00;1.30;;;;;;;9.88;nan;97608.78;4996881;28;20246;-70
2022/10/01 06:16:15;;;;;;;1.50;1.40;;;;;;;9.79;nan;97614.63;4997151;28;20286;-70
2022/10/01 06:18:42;;;;;;;1.37;1.20;;;;;;;9.78;nan;97608.50;4996744;28;20233;-70
2022/10/01 06:21:09;;;;;;;1.97;1.53;;;;;;;9.72;nan;97606.75;4996683;28;20227;-70
2022/10/01 06:23:36;;;;;;;1.63;1.53;;;;;;;9.63;nan;97600.13;4996664;28;20269;-70
2022/10/01 06:26:05;;;;;;;3.33;2.00;;;;;;;9.63;nan;97601.97;4996324;28;20228;-70
2022/10/01 06:28:32;;;;;;;2.03;1.77;;;;;;;9.60;nan;97595.25;4996573;28;20257;-70
2022/10/01 06:31:03;;;;;;;3.23;2.30;;;;;;;9.59;nan;97595.50;4996737;28;20231;-70
2022/10/01 06:33:29;;;;;;;3.33;2.33;;;;;;;9.57;nan;97590.41;4996790;28;20211;-70
2022/10/01 06:35:56;;;;;;;4.17;2.33;;;;;;;9.58;nan;97596.50;4996674;28;20203;-71
2022/10/01 06:38:24;;;;;;;2.80;2.30;;;;;;;9.55;nan;97594.31;4996625;28;20214;-70
2022/10/01 06:40:55;;;;;;;2.00;1.80;;;;;;;9.52;nan;97592.94;4996398;28;20608;-70
2022/10/01 06:43:23;;;;;;;3.20;2.37;;;;;;;9.54;nan;97592.69;4996321;28;20191;-70
2022/10/01 06:45:49;;;;;;;4.07;2.40;;;;;;;9.56;nan;97588.78;4997084;28;20233;-70
2022/10/01 06:48:18;;;;;;;6.40;2.20;;;;;;;9.58;nan;97585.91;4996002;28;20215;-70
2022/10/01 06:50:45;;;;;;;3.17;2.30;;;;;;;9.53;nan;97588.41;4996027;28;20258;-70
2022/10/01 06:53:13;;;;;;;2.30;1.97;;;;;;;9.55;nan;97595.13;4996249;28;20213;-70
2022/10/01 06:55:40;;;;;;;2.17;1.90;;;;;;;9.54;nan;97590.03;4996144;28;20568;-69
2022/10/01 06:58:26;;;;;;;2.33;2.10;;;;;;;9.58;nan;97594.69;4996195;28;20218;-70
2022/10/01 07:00:58;;;;;;;2.83;2.30;;;;;;;9.54;nan;97598.00;4996403;28;20231;-70
2022/10/01 07:03:25;;;;;;;2.53;2.07;;;;;;;9.46;nan;97590.34;4995962;28;20195;-70
2022/10/01 07:05:51;;;;;;;5.43;2.50;;;;;;;9.47;nan;97598.09;4995781;28;20712;-70
2022/10/01 07:08:18;;;;;;;3.13;2.40;;;;;;;9.50;nan;97599.50;4996023;28;20210;-70
2022/10/01 07:10:45;;;;;;;3.23;2.47;;;;;;;9.49;nan;97595.19;4995869;28;20231;-70
2022/10/01 07:13:17;;;;;;;2.70;2.00;;;;;;;9.55;nan;97599.63;4995886;28;20238;-70
2022/10/01 07:15:44;;;;;;;3.30;2.47;;;;;;;9.49;nan;97589.88;4995569;28;20188;-70
2022/10/01 07:18:11;;;;;;;5.73;2.50;;;;;;;9.57;nan;97587.75;4995836;28;20204;-70
2022/10/01 07:20:39;;;;;;;3.47;2.40;;;;;;;9.49;nan;97582.75;4995407;28;20227;-70
2022/10/01 07:23:08;;;;;;;3.53;2.70;;;;;;;9.46;nan;97587.72;4995607;28;20215;-70
2022/10/01 07:25:34;;;;;;;3.87;2.63;;;;;;;9.52;nan;97586.81;4995665;28;20226;-70
2022/10/01 07:28:04;;;;;;;4.33;2.40;;;;;;;9.49;nan;97581.94;4995296;28;20217;-70
2022/10/01 07:30:31;;;;;;;3.63;2.47;;;;;;;9.48;nan;97577.66;4995495;28;20231;-70
2022/10/01 07:32:58;;;;;;;4.97;3.03;;;;;;;9.52;nan;97576.19;4995029;28;20570;-70
2022/10/01 07:35:25;;;;;;;4.23;2.73;;;;;;;9.52;nan;97576.19;4995479;28;20214;-70
2022/10/01 07:37:54;;;;;;;4.37;2.80;;;;;;;9.48;nan;97561.75;4995539;28;20211;-70
2022/10/01 07:40:20;;;;;;;3.00;2.70;;;;;;;9.46;nan;97577.88;4995434;28;20317;-70
2022/10/01 07:42:56;;;;;;;4.57;2.70;;;;;;;9.45;nan;97578.09;4994893;28;20215;-70
2022/10/01 07:45:24;;;;;;;3.90;3.10;;;;;;;9.47;nan;97568.09;4994822;28;20223;-70
2022/10/01 07:47:59;;;;;;;3.47;3.10;;;;;;;9.42;nan;97558.13;4995178;28;20218;-70
2022/10/01 07:50:29;;;;;;;6.03;3.70;;;;;;;9.40;nan;97570.81;4994860;28;20729;-70
2022/10/01 07:52:57;;;;;;;3.50;3.20;;;;;;;9.41;nan;97572.44;4994891;28;20305;-70
2022/10/01 07:55:25;;;;;;;4.20;3.43;;;;;;;9.44;nan;97572.00;4995276;28;20212;-70
2022/10/01 07:57:58;;;;;;;3.50;2.77;;;;;;;9.46;nan;97569.13;4994822;28;20666;-70
2022/10/01 08:00:26;;;;;;;3.47;2.70;;;;;;;9.49;nan;97573.97;4994932;28;20227;-69
2022/10/01 08:02:55;;;;;;;2.57;2.20;;;;;;;9.40;nan;97570.81;4994757;28;20207;-70
2022/10/01 08:05:24;;;;;;;5.93;2.40;;;;;;;9.48;nan;97581.13;4994960;28;20223;-69
2022/10/01 08:07:51;;;;;;;2.07;1.87;;;;;;;9.50;nan;97580.91;4994489;28;20218;-69
2022/10/01 08:10:19;;;;;;;3.17;1.97;;;;;;;9.50;nan;97579.06;4994863;28;20342;-70
2022/10/01 08:12:46;;;;;;;2.30;2.10;;;;;;;9.55;nan;97581.06;4994938;28;20211;-70
2022/10/01 08:15:15;;;;;;;2.47;2.20;;;;;;;9.53;nan;97577.81;4994760;28;20210;-70
2022/10/01 08:17:42;;;;;;;2.47;1.80;;;;;;;9.57;nan;97581.63;4995279;28;20215;-69
2022/10/01 08:20:10;;;;;;;1.87;1.63;;;;;;;9.61;nan;97582.81;4994496;28;20227;-70
2022/10/01 08:22:37;;;;;;;2.70;2.00;;;;;;;9.58;nan;97580.59;4994626;28;20204;-70
2022/10/01 08:25:04;;;;;;;2.07;1.90;;;;;;;9.60;nan;97586.50;4994689;28;20249;-70
2022/10/01 08:27:31;;;;;;;4.00;2.23;;;;;;;9.64;nan;97588.47;4994611;28;20575;-69
2022/10/01 08:29:57;;;;;;;3.17;2.33;;;;;;;9.71;nan;97591.03;4994499;28;20234;-70
2022/10/01 08:32:25;;;;;;;3.60;2.30;;;;;;;9.69;nan;97593.91;4994322;28;20243;-70
2022/10/01 08:34:53;;;;;;;2.63;1.60;;;;;;;9.70;nan;97611.47;4994559;28;20199;-70
2022/10/01 08:37:20;;;;;;;2.70;1.90;;;;;;;9.72;nan;97603.28;4994437;28;20207;-70
2022/10/01 08:39:46;;;;;;;2.13;1.80;;;;;;;9.80;nan;97613.59;4994474;28;20233;-70
2022/10/01 08:42:35;;;;;;;1.90;1.50;;;;;;;9.78;nan;97608.50;4994437;28;20216;-70
2022/10/01 08:45:11;;;;;;;2.07;1.47;;;;;;;9.80;nan;97602.97;4994232;28;20301;-70
2022/10/01 08:47:50;;;;;;;1.50;1.40;;;;;;;9.90;nan;97600.56;5009099;28;20680;-69
2022/10/01 08:50:41;;;;;;;1.63;1.30;;;;;;;9.90;nan;97609.34;5009435;28;20318;-70
2022/10/01 08:53:16;;;;;;;1.60;1.37;;;;;;;9.87;nan;97620.41;4994603;28;20202;-69
2022/10/01 08:55:44;;;;;;;2.10;1.37;;;;;;;9.85;nan;97608.41;5008425;28;20715;-69
2022/10/01 08:58:23;;;;;;;1.60;1.50;;;;;;;9.88;nan;97608.78;4993771;28;20214;-70
2022/10/01 09:00:51;;;;;;;5.10;1.97;;;;;;;9.94;nan;97612.38;4994019;28;20228;-69
2022/10/01 09:03:18;;;;;;;1.90;1.50;;;;;;;9.99;nan;97610.66;4994104;28;20289;-70
2022/10/01 09:05:50;;;;;;;2.93;1.40;;;;;;;10.01;nan;97613.09;5008878;28;20233;-69
2022/10/01 09:08:44;;;;;;;1.40;1.30;;;;;;;10.07;nan;97615.69;4994094;28;20625;-70
2022/10/01 09:11:16;;;;;;;2.03;1.50;;;;;;;10.07;nan;97620.19;5008826;28;20231;-70
2022/10/01 09:13:46;;;;;;;1.83;1.50;;;;;;;10.14;nan;97626.22;4993786;28;20191;-70
2022/10/01 09:16:22;;;;;;;1.50;1.40;;;;;;;10.18;nan;97617.56;4994112;28;20243;-69
2022/10/01 09:19:21;;;;;;;2.80;1.50;;;;;;;10.21;nan;97617.13;5010084;28;20191;-70
2022/10/01 09:21:57;;;;;;;2.83;1.30;;;;;;;10.25;nan;97620.94;4997847;28;20215;-69
2022/10/01 09:24:31;;;;;;;1.20;1.10;;;;;;;10.31;nan;97614.72;4997704;28;20218;-69
2022/10/01 09:26:57;;;;;;;1.47;1.27;;;;;;;10.38;nan;97612.78;4997830;28;20250;-70
2022/10/01 09:29:32;;;;;;;1.67;1.27;;;;;;;10.40;nan;97599.25;4997774;28;20213;-69
2022/10/01 09:32:00;;;;;;;1.40;1.30;;;;;;;10.40;nan;97602.72;5011954;28;20654;-69
2022/10/01 09:34:30;;;;;;;2.87;1.50;;;;;;;10.41;nan;97607.00;4997814;28;20258;-69
2022/10/01 09:37:15;;;;;;;1.70;1.60;;;;;;;10.46;nan;97611.63;4997805;28;20210;-69
2022/10/01 09:40:00;;;;;;;1.63;1.17;;;;;;;10.49;nan;97598.69;4997504;28;20227;-69
2022/10/01 09:42:29;;;;;;;1.50;1.20;;;;;;;10.45;nan;97610.03;5012072;28;20201;-69
2022/10/01 09:44:57;;;;;;;1.63;1.13;;;;;;;10.47;nan;97607.94;4997504;28;20217;-69
2022/10/01 09:47:25;;;;;;;1.33;1.23;;;;;;;10.50;nan;97612.81;4997610;28;20572;-70
2022/10/01 09:49:52;;;;;;;1.00;1.00;;;;;;;10.50;nan;97618.13;4997528;28;20318;-69
2022/10/01 09:52:49;;;;;;;3.80;1.10;;;;;;;10.52;nan;97616.84;4997499;28;20302;-70
2022/10/01 09:55:18;;;;;;;1.27;1.10;;;;;;;10.55;nan;97610.25;4996867;28;20207;-69
2022/10/01 09:57:55;;;;;;;1.90;1.10;;;;;;;10.65;nan;97626.44;4997254;28;20204;-70
2022/10/01 10:00:25;;;;;;;1.07;1.07;;;;;;;10.62;nan;97614.44;4997757;28;20227;-69
2022/10/01 10:02:53;;;;;;;1.10;1.00;;;;;;;10.64;nan;97622.19;4997013;28;20663;-70
2022/10/01 10:05:29;;;;;;;1.33;0.83;;;;;;;10.73;nan;97626.13;4997378;28;20231;-70
2022/10/01 10:08:04;;;;;;;0.80;0.80;;;;;;;10.75;nan;97629.34;4997159;28;20191;-69
2022/10/01 10:10:34;;;;;;;0.90;0.90;;;;;;;10.81;nan;97628.41;4997072;28;20230;-69
2022/10/01 10:13:09;;;;;;;1.27;1.00;;;;;;;10.76;nan;97626.47;4997774;28;20211;-70
2022/10/01 10:15:42;;;;;;;0.90;0.90;;;;;;;10.81;nan;97631.91;4996945;28;20207;-70
2022/10/01 10:18:15;;;;;;;1.00;1.00;;;;;;;10.80;nan;97630.28;4996578;28;20632;-70
2022/10/01 10:20:44;;;;;;;1.20;0.90;;;;;;;10.90;nan;97635.00;4996863;28;20294;-70
2022/10/01 10:23:18;;;;;;;2.80;1.13;;;;;;;10.89;nan;97628.06;4996487;28;20678;-69
2022/10/01 10:25:55;;;;;;;0.80;0.80;;;;;;;10.90;nan;97632.34;4996744;28;20253;-70
2022/10/01 10:28:23;;;;;;;0.80;0.80;;;;;;;10.92;nan;97638.25;4996848;28;20199;-69
2022/10/01 10:30:54;;;;;;;0.80;0.80;;;;;;;11.01;nan;97628.91;4996160;28;20238;-70
2022/10/01 10:33:22;;;;;;;0.97;0.80;;;;;;;10.97;nan;97617.09;4996768;28;20231;-70
2022/10/01 10:36:01;;;;;;;3.00;1.00;;;;;;;10.96;nan;97612.81;4996451;28;20204;-69
2022/10/01 10:38:32;;;;;;;0.83;0.50;;;;;;;11.05;nan;97614.09;4996533;28;20188;-70
2022/10/01 10:40:59;;;;;;;0.70;0.70;;;;;;;11.06;nan;97613.06;4996475;28;20237;-70
2022/10/01 10:43:30;;;;;;;0.87;0.87;;;;;;;11.08;nan;97610.94;4996499;28;20230;-70
2022/10/01 10:45:58;;;;;;;1.80;0.90;;;;;;;11.14;nan;97610.03;4996206;28;20211;-70
2022/10/01 10:48:31;;;;;;;0.77;0.60;;;;;;;11.16;nan;97609.81;4996330;28;20217;-70
2022/10/01 10:51:00;;;;;;;0.73;0.63;;;;;;;11.19;nan;97607.50;4996394;28;20296;-70
2022/10/01 10:53:32;;;;;;;0.90;0.70;;;;;;;11.24;nan;97599.63;4996373;28;20211;-70
2022/10/01 10:56:02;;;;;;;0.73;0.63;;;;;;;11.27;nan;97604.47;4996087;28;20294;-70
2022/10/01 10:58:39;;;;;;;0.70;0.70;;;;;;;11.32;nan;97610.69;4996187;28;20187;-70
2022/10/01 11:01:15;;;;;;;0.90;0.90;;;;;;;11.30;nan;97601.31;4995590;28;20709;-70
2022/10/01 11:03:48;;;;;;;1.27;1.03;;;;;;;11.41;nan;97597.84;4996455;28;20192;-70
2022/10/01 11:06:17;;;;;;;1.80;0.83;;;;;;;11.57;nan;97602.41;4996010;28;20215;-70
2022/10/01 11:08:45;;;;;;;0.80;0.80;;;;;;;11.62;nan;97586.56;4995933;28;20234;-70
2022/10/01 11:11:31;;;;;;;0.97;0.70;;;;;;;11.69;nan;97597.91;4995706;28;20237;-70
2022/10/01 11:14:44;;;;;;;0.60;0.60;;;;;;;11.80;nan;97604.25;5009223;28;20252;-70
2022/10/01 11:17:41;;;;;;;1.13;0.80;;;;;;;11.74;nan;97586.53;4993624;28;20203;-70
2022/10/01 11:20:59;;;;;;;0.93;0.93;;;;;;;11.73;nan;97576.94;4993243;28;20231;-70
2022/10/01 11:23:36;;;;;;;0.97;0.97;;;;;;;11.79;nan;97581.31;4951925;28;20226;-71
2022/10/01 11:26:15;;;;;;;1.07;0.77;;;;;;;11.76;nan;97587.13;4995133;28;20211;-71
2022/10/01 11:29:00;;;;;;;1.63;0.90;;;;;;;11.77;nan;97578.09;4995539;28;20210;-72
2022/10/01 11:32:10;;;;;;;0.70;0.70;;;;;;;11.79;nan;97590.13;4995186;28;20710;-71
2022/10/01 11:34:47;;;;;;;1.03;0.77;;;;;;;11.83;nan;97588.59;4993061;28;20211;-69
2022/10/01 11:37:36;;;;;;;0.50;0.50;;;;;;;11.81;nan;97601.34;4995118;28;20202;-70
2022/10/01 11:40:14;;;;;;;0.60;0.60;;;;;;;11.83;nan;97601.91;4994784;28;20330;-69
2022/10/01 11:42:42;;;;;;;1.10;0.60;;;;;;;11.85;nan;97602.47;4994205;28;20202;-71
2022/10/01 11:45:24;;;;;;;0.73;0.60;;;;;;;11.85;nan;97607.78;4994930;28;20663;-72
2022/10/01 11:47:56;;;;;;;0.77;0.67;;;;;;;11.89;nan;97608.94;4995200;28;20219;-70
2022/10/01 11:50:31;;;;;;;1.00;0.77;;;;;;;11.87;nan;97619.03;5009995;28;20269;-69
2022/10/01 11:53:21;;;;;;;0.70;0.70;;;;;;;11.90;nan;97623.91;4994895;28;20655;-69
2022/10/01 11:59:23;;;;;;;0.97;0.60;;;;;;;11.89;nan;97635.56;4994346;28;20206;-69
2022/10/01 12:01:57;;;;;;;0.70;0.70;;;;;;;11.89;nan;97637.44;4994469;28;20576;-69
2022/10/01 12:04:38;;;;;;;0.60;0.60;;;;;;;11.91;nan;97636.16;4994502;28;20640;-69
2022/10/01 12:07:13;;;;;;;0.40;0.40;;;;;;;11.90;nan;97642.53;4995468;28;20220;-69
2022/10/01 12:10:16;;;;;;;0.77;0.60;;;;;;;11.91;nan;97646.00;4994847;28;20254;-69
2022/10/01 12:12:54;;;;;;;0.50;0.50;;;;;;;11.92;nan;97653.75;4994493;28;20246;-69
2022/10/01 12:15:31;;;;;;;0.57;0.57;;;;;;;11.95;nan;97655.13;5009033;28;20195;-69
2022/10/01 12:18:06;;;;;;;0.70;0.60;;;;;;;11.99;nan;97643.78;4995182;28;20192;-69
2022/10/01 12:20:43;;;;;;;0.77;0.37;;;;;;;12.02;nan;97651.28;4994500;28;20231;-69
2022/10/01 12:23:16;;;;;;;0.50;0.50;;;;;;;12.06;nan;97659.59;5008604;28;20679;-69
2022/10/01 12:25:52;;;;;;;0.83;0.50;;;;;;;12.09;nan;97659.97;4994014;28;20211;-69